Time;durP1;ratioP1;P1;durP2;ratioP2;P2;SDS_P1;SDS_P2;PMS_P1;PMS_P2;Temp;Humidity;BMP_temperature;BMP_pressure;BME280_temperature;BME280_humidity;BME280_pressure;Samples;Min_cycle;Max_cycle;Signal;HPM_P1;HPM_P2
2022/02/05 00:03:43;;;;;;;25.10;15.30;;;;;;;-4.46;100.00;99005.58;1594782;85;21045;-71
2022/02/05 00:06:10;;;;;;;25.97;14.90;;;;;;;-4.45;100.00;98995.86;1694258;84;21038;-70
2022/02/05 00:08:49;;;;;;;23.50;14.03;;;;;;;-4.45;100.00;98995.86;1692449;85;21629;-70
2022/02/05 00:20:00;;;;;;;24.37;13.60;;;;;;;-4.50;100.00;98992.20;1642380;86;21121;-69
2022/02/05 00:43:16;;;;;;;23.67;13.50;;;;;;;-4.50;100.00;98990.04;1663112;86;21093;-70
2022/02/05 00:45:50;;;;;;;22.57;12.30;;;;;;;-4.51;100.00;98989.69;1686101;83;21032;-70
2022/02/05 00:48:17;;;;;;;25.00;14.07;;;;;;;-4.51;100.00;98996.28;1709549;83;21091;-70
2022/02/05 00:50:49;;;;;;;32.47;21.30;;;;;;;-4.51;100.00;98993.16;1711930;83;21040;-69
2022/02/05 00:55:59;;;;;;;23.20;12.53;;;;;;;-4.51;100.00;98993.16;1702866;84;21099;-69
2022/02/05 00:58:21;;;;;;;23.27;12.33;;;;;;;-4.51;100.00;98990.52;1697281;83;21055;-70
2022/02/05 01:00:48;;;;;;;20.83;11.90;;;;;;;-4.50;100.00;98999.27;1733522;81;21031;-70
2022/02/05 01:03:15;;;;;;;23.17;12.67;;;;;;;-4.49;100.00;98999.18;1778535;80;21029;-70
2022/02/05 01:05:43;;;;;;;30.33;20.03;;;;;;;-4.51;100.00;98993.16;1753315;81;21550;-70
2022/02/05 01:08:10;;;;;;;25.13;14.50;;;;;;;-4.50;100.00;99000.59;1757952;80;21663;-70
2022/02/05 01:10:39;;;;;;;69.93;45.93;;;;;;;-4.50;100.00;98995.31;1778198;80;21088;-71
2022/02/05 01:13:10;;;;;;;57.93;37.33;;;;;;;-4.51;100.00;99001.56;1775932;80;21046;-68
2022/02/05 01:15:43;;;;;;;26.70;15.10;;;;;;;-4.51;100.00;98999.76;1783053;79;20994;-70
2022/02/05 01:18:08;;;;;;;26.20;17.50;;;;;;;-4.50;100.00;99000.11;1775558;80;21045;-69
2022/02/05 01:23:09;;;;;;;34.33;25.50;;;;;;;-4.48;100.00;99011.89;1781629;80;21652;-70
2022/02/05 01:25:40;;;;;;;25.30;14.57;;;;;;;-4.47;100.00;99008.31;1783108;80;21001;-70
2022/02/05 01:28:13;;;;;;;23.50;14.10;;;;;;;-4.46;100.00;99012.17;1774525;79;21049;-70
2022/02/05 01:30:46;;;;;;;21.97;13.47;;;;;;;-4.44;100.00;99012.08;1750363;80;21045;-70
2022/02/05 01:36:11;;;;;;;45.83;30.97;;;;;;;-4.43;100.00;99016.39;1779860;80;21006;-68
2022/02/05 01:52:25;;;;;;;22.73;12.73;;;;;;;-4.40;100.00;99023.63;1718518;82;21034;-70
2022/02/05 01:55:08;;;;;;;36.37;26.93;;;;;;;-4.38;100.00;99023.53;1724441;81;21109;-70
2022/02/05 01:57:26;;;;;;;27.00;18.30;;;;;;;-4.36;100.00;99025.59;1748410;81;21054;-69
2022/02/05 02:16:05;;;;;;;20.93;11.63;;;;;;;-4.47;100.00;99030.75;1720566;82;21010;-70
2022/02/05 02:28:46;;;;;;;20.57;11.23;;;;;;;-4.55;100.00;99035.67;1698607;84;21583;-69
2022/02/05 02:31:11;;;;;;;21.00;11.10;;;;;;;-4.59;100.00;99035.86;1695766;84;21555;-71
2022/02/05 02:33:41;;;;;;;20.30;10.60;;;;;;;-4.62;100.00;99037.40;1677365;84;21527;-70
2022/02/05 02:36:16;;;;;;;20.87;10.30;;;;;;;-4.66;100.00;99032.41;1681826;83;21036;-70
2022/02/05 02:38:46;;;;;;;19.53;10.57;;;;;;;-4.70;100.00;99035.72;1710413;82;21496;-70
2022/02/05 02:41:15;;;;;;;22.20;11.50;;;;;;;-4.74;100.00;99046.59;1711570;83;21050;-70
2022/02/05 02:43:37;;;;;;;22.37;10.90;;;;;;;-4.79;100.00;99038.95;1713141;82;21078;-70
2022/02/05 02:46:04;;;;;;;20.60;10.63;;;;;;;-4.82;100.00;99043.10;1690980;83;21547;-70
2022/02/05 02:48:33;;;;;;;20.73;10.27;;;;;;;-4.84;100.00;99050.27;1714766;82;21051;-70
2022/02/05 03:01:49;;;;;;;19.93;10.03;;;;;;;-5.11;100.00;99061.63;1572572;90;21083;-70
2022/02/05 03:04:16;;;;;;;19.43;11.00;;;;;;;-5.17;100.00;99058.03;1596836;89;21078;-69
2022/02/05 03:06:43;;;;;;;28.33;18.23;;;;;;;-5.21;100.00;99066.60;1589168;89;21578;-70
2022/02/05 03:09:10;;;;;;;25.87;17.33;;;;;;;-5.26;100.00;99065.20;1591099;89;21090;-71
2022/02/05 03:11:37;;;;;;;24.70;14.60;;;;;;;-5.31;100.00;99065.50;1577500;89;21159;-69
2022/02/05 03:14:04;;;;;;;24.37;13.77;;;;;;;-5.37;100.00;99069.34;1595334;89;21590;-70
2022/02/05 03:16:36;;;;;;;23.37;15.03;;;;;;;-5.44;100.00;99062.75;1525493;92;21090;-70
2022/02/05 03:21:32;;;;;;;21.60;11.60;;;;;;;-5.58;100.00;99066.25;1551179;92;21080;-69
2022/02/05 03:23:59;;;;;;;20.20;11.33;;;;;;;-5.63;100.00;99074.03;1530246;93;21080;-69
2022/02/05 03:26:26;;;;;;;21.50;11.10;;;;;;;-5.68;100.00;99082.67;1500691;95;21121;-69
2022/02/05 03:28:53;;;;;;;21.03;10.87;;;;;;;-5.75;100.00;99079.58;1482253;93;21121;-69
2022/02/05 03:31:20;;;;;;;20.27;10.87;;;;;;;-5.81;100.00;99086.03;1508006;93;21677;-70
2022/02/05 03:33:47;;;;;;;20.33;11.00;;;;;;;-5.88;100.00;99083.87;1494252;93;21478;-70
2022/02/05 03:36:14;;;;;;;21.73;10.60;;;;;;;-5.94;100.00;99086.40;1513324;93;21119;-69
2022/02/05 03:38:41;;;;;;;20.23;10.70;;;;;;;-6.00;100.00;99082.38;1511089;94;21102;-70
2022/02/05 03:41:10;;;;;;;19.77;10.13;;;;;;;-6.04;100.00;99089.22;1552367;90;21126;-69
2022/02/05 03:43:37;;;;;;;25.00;11.73;;;;;;;-6.10;100.00;99086.48;1573694;90;21162;-70
2022/02/05 03:46:04;;;;;;;22.87;11.83;;;;;;;-6.12;100.00;99093.63;1588849;90;21645;-70
2022/02/05 03:48:32;;;;;;;22.20;11.63;;;;;;;-6.14;100.00;99092.87;1577419;90;21094;-69
2022/02/05 03:51:00;;;;;;;23.43;12.43;;;;;;;-6.16;100.00;99094.72;1580134;87;21023;-70
2022/02/05 03:53:28;;;;;;;26.03;13.70;;;;;;;-6.21;100.00;99097.62;1644753;85;21024;-69
2022/02/05 03:55:55;;;;;;;22.83;12.33;;;;;;;-6.23;100.00;99096.00;1646884;86;21104;-69
2022/02/05 03:58:23;;;;;;;23.77;13.10;;;;;;;-6.26;100.00;99094.41;1712175;80;21030;-69
2022/02/05 04:00:50;;;;;;;31.40;21.67;;;;;;;-6.30;100.00;99100.80;1712346;83;21072;-69
2022/02/05 04:03:17;;;;;;;25.47;15.23;;;;;;;-6.32;100.00;99105.27;1691308;83;21061;-70
2022/02/05 04:05:44;;;;;;;24.80;14.47;;;;;;;-6.36;100.00;99106.39;1711028;83;21007;-70
2022/02/05 04:08:13;;;;;;;25.53;13.07;;;;;;;-6.40;100.00;99113.61;1781518;80;21459;-70
2022/02/05 04:10:46;;;;;;;23.63;13.20;;;;;;;-6.42;100.00;99114.17;1751613;81;21562;-70
2022/02/05 04:18:45;;;;;;;25.50;12.90;;;;;;;-6.50;100.00;99130.84;1786683;78;21041;-69
2022/02/05 04:21:14;;;;;;;24.00;12.90;;;;;;;-6.54;100.00;99137.21;1770432;80;21017;-69
2022/02/05 04:23:41;;;;;;;22.73;11.80;;;;;;;-6.61;100.00;99136.70;1789192;79;21046;-70
2022/02/05 04:26:08;;;;;;;22.97;12.37;;;;;;;-6.66;100.00;99139.20;1769918;80;21498;-70
2022/02/05 04:28:35;;;;;;;23.63;14.27;;;;;;;-6.69;100.00;99141.55;1785739;79;21521;-70
2022/02/05 04:31:04;;;;;;;25.27;14.97;;;;;;;-6.73;100.00;99147.45;1766961;79;21057;-70
2022/02/05 04:33:31;;;;;;;25.27;15.40;;;;;;;-6.74;100.00;99147.52;1781653;79;21068;-69
2022/02/05 04:35:58;;;;;;;27.17;15.33;;;;;;;-6.75;100.00;99151.07;1745377;80;21025;-70
2022/02/05 04:38:26;;;;;;;24.40;13.73;;;;;;;-6.77;100.00;99143.27;1783712;79;21049;-69
2022/02/05 04:41:04;;;;;;;25.37;13.50;;;;;;;-6.77;100.00;99154.25;1785135;79;21030;-69
2022/02/05 05:04:38;;;;;;;59.17;27.67;;;;;;;-6.89;100.00;99175.03;1697083;83;21619;-70
2022/02/05 05:15:29;;;;;;;43.03;22.63;;;;;;;-6.93;100.00;99197.60;1626490;87;21107;-71
2022/02/05 05:20:30;;;;;;;50.27;27.77;;;;;;;-6.98;100.00;99203.56;1619891;87;21135;-68
2022/02/05 05:22:57;;;;;;;72.50;39.00;;;;;;;-7.00;100.00;99207.58;1607944;89;21304;-69
2022/02/05 05:25:24;;;;;;;53.80;30.10;;;;;;;-7.00;100.00;99206.75;1638485;87;21676;-70
2022/02/05 05:27:55;;;;;;;57.27;29.00;;;;;;;-7.03;100.00;99198.53;1638371;86;21169;-70
2022/02/05 05:30:22;;;;;;;61.40;33.63;;;;;;;-7.02;100.00;99208.61;1638653;87;21141;-68
2022/02/05 05:32:51;;;;;;;88.40;38.00;;;;;;;-7.01;100.00;99199.34;1639464;87;21515;-69
2022/02/05 05:35:22;;;;;;;73.07;34.37;;;;;;;-6.96;100.00;99209.58;1639872;87;21122;-69
2022/02/05 05:37:55;;;;;;;75.97;34.53;;;;;;;-6.93;100.00;99206.80;1640186;87;21057;-69
2022/02/05 05:40:21;;;;;;;;;;;;;;;-6.90;100.00;99204.02;1610564;89;21090;-69
2022/02/05 05:43:04;;;;;;;81.07;34.47;;;;;;;-6.88;100.00;99210.88;1581957;91;20138;-70
2022/02/05 05:46:03;;;;;;;51.80;24.10;;;;;;;-6.83;100.00;99209.33;1659498;85;21134;-69
2022/02/05 05:48:13;;;;;;;33.80;17.43;;;;;;;-6.65;100.00;99203.55;1662066;85;21137;-69
2022/02/05 05:53:12;;;;;;;23.57;11.90;;;;;;;-6.12;100.00;99193.63;1706191;82;21015;-70
2022/02/05 05:55:44;;;;;;;20.53;11.13;;;;;;;-6.02;100.00;99197.89;1668472;84;21016;-69
2022/02/05 05:58:10;;;;;;;19.20;10.27;;;;;;;-5.97;100.00;99198.00;1595566;87;21099;-69
2022/02/05 06:00:39;;;;;;;20.17;9.73;;;;;;;-5.92;100.00;99199.88;1586683;90;21118;-70
2022/02/05 06:03:06;;;;;;;21.70;10.73;;;;;;;-5.88;100.00;99196.60;1631875;86;21591;-70
2022/02/05 06:05:33;;;;;;;18.93;9.77;;;;;;;-5.84;100.00;99202.54;1623503;87;21027;-67
2022/02/05 06:08:04;;;;;;;22.87;10.97;;;;;;;-5.83;100.00;99199.82;1623644;87;21223;-71
2022/02/05 06:10:33;;;;;;;22.43;11.33;;;;;;;-5.83;100.00;99192.40;1626606;86;21091;-70
2022/02/05 06:13:01;;;;;;;23.47;11.83;;;;;;;-5.81;100.00;99195.79;1610063;87;21081;-70
2022/02/05 06:15:31;;;;;;;26.13;12.63;;;;;;;-5.77;100.00;99190.72;1609928;87;21113;-69
2022/02/05 06:17:58;;;;;;;27.17;12.77;;;;;;;-5.73;100.00;99193.09;1605225;86;21030;-69
2022/02/05 06:20:27;;;;;;;28.37;13.40;;;;;;;-5.68;100.00;99197.23;1599357;87;21597;-70
2022/02/05 06:22:54;;;;;;;26.07;12.50;;;;;;;-5.66;100.00;99188.33;1635685;87;21026;-70
2022/02/05 06:25:21;;;;;;;27.33;14.53;;;;;;;-5.63;100.00;99197.82;1602395;88;21098;-69
2022/02/05 06:27:48;;;;;;;33.73;17.80;;;;;;;-5.60;100.00;99190.59;1588574;87;21176;-69
2022/02/05 06:30:15;;;;;;;33.80;16.33;;;;;;;-5.55;100.00;99186.37;1588459;88;21034;-69
2022/02/05 06:32:43;;;;;;;34.03;17.03;;;;;;;-5.47;100.00;99180.65;1620858;87;21102;-70
2022/02/05 06:35:11;;;;;;;33.37;16.53;;;;;;;-5.38;100.00;99181.44;1622476;87;21538;-70
2022/02/05 06:37:38;;;;;;;34.00;16.77;;;;;;;-5.30;100.00;99177.02;1622257;87;21078;-71
2022/02/05 06:40:07;;;;;;;35.47;17.17;;;;;;;-5.21;100.00;99177.30;1577573;88;21128;-69
2022/02/05 06:42:36;;;;;;;33.93;18.10;;;;;;;-5.16;100.00;99169.97;1632380;87;21155;-70
2022/02/05 06:45:05;;;;;;;35.60;17.93;;;;;;;-5.09;100.00;99165.17;1623050;86;21098;-69
2022/02/05 06:47:33;;;;;;;35.27;18.87;;;;;;;-5.01;100.00;99160.30;1610973;88;21070;-70
2022/02/05 06:50:02;;;;;;;40.13;20.93;;;;;;;-4.92;100.00;99160.20;1629005;87;21062;-70
2022/02/05 06:52:30;;;;;;;35.10;18.60;;;;;;;-4.83;100.00;99157.47;1616508;87;21562;-71
2022/02/05 06:54:57;;;;;;;34.10;16.80;;;;;;;-4.73;100.00;99150.65;1673750;82;21105;-72
2022/02/05 06:57:24;;;;;;;32.33;15.87;;;;;;;-4.63;100.00;99140.38;1738127;81;21058;-70
2022/02/05 06:59:51;;;;;;;32.67;16.97;;;;;;;-4.56;100.00;99143.48;1756118;81;21069;-71
2022/02/05 07:02:18;;;;;;;50.87;23.50;;;;;;;-4.49;100.00;99135.55;1756274;81;21112;-70
2022/02/05 07:04:47;;;;;;;66.83;34.30;;;;;;;-4.40;100.00;99131.84;1736648;82;21060;-70
2022/02/05 07:07:14;;;;;;;66.03;28.93;;;;;;;-4.25;100.00;99127.38;1754668;82;20990;-72
2022/02/05 07:09:41;;;;;;;46.37;21.30;;;;;;;-4.14;100.00;99116.56;1753527;81;21543;-71
2022/02/05 07:12:12;;;;;;;44.47;18.40;;;;;;;-4.05;100.00;99115.50;1760157;80;21061;-71
2022/02/05 07:19:59;;;;;;;32.63;16.40;;;;;;;-3.80;100.00;99114.36;1692708;83;21040;-70
2022/02/05 07:22:15;;;;;;;31.60;16.27;;;;;;;-3.65;100.00;99104.05;1692474;84;21490;-71
2022/02/05 07:24:58;;;;;;;31.33;15.27;;;;;;;-3.52;100.00;99099.64;1693596;85;21525;-69
2022/02/05 07:30:01;;;;;;;24.33;12.47;;;;;;;-3.30;100.00;99080.98;1688088;83;21529;-70
2022/02/05 07:32:29;;;;;;;32.07;20.43;;;;;;;-3.20;100.00;99074.10;1695563;83;21109;-69
2022/02/05 07:34:56;;;;;;;24.17;14.27;;;;;;;-3.20;100.00;99071.45;1657523;85;21142;-70
2022/02/05 07:37:23;;;;;;;21.67;11.37;;;;;;;-3.19;100.00;99065.20;1686548;84;21041;-69
2022/02/05 07:39:50;;;;;;;18.60;10.73;;;;;;;-3.06;100.00;99069.17;1650236;86;21079;-70
2022/02/05 07:42:18;;;;;;;23.80;12.53;;;;;;;-2.94;100.00;99093.88;1626468;88;21124;-71
2022/02/05 07:44:49;;;;;;;22.53;11.63;;;;;;;-2.79;100.00;99110.00;1636676;84;21146;-70
2022/02/05 07:47:21;;;;;;;27.93;15.67;;;;;;;-2.55;100.00;99133.02;1628184;86;21723;-70
2022/02/05 07:49:46;;;;;;;22.90;11.13;;;;;;;-2.31;100.00;99176.75;1616399;87;21079;-70
2022/02/05 07:52:13;;;;;;;19.23;9.87;;;;;;;-2.12;100.00;99253.09;1623752;87;21039;-70
2022/02/05 07:54:40;;;;;;;22.37;11.07;;;;;;;-2.14;100.00;99375.53;1606628;85;21541;-70
2022/02/05 07:57:07;;;;;;;79.43;49.30;;;;;;;-2.16;100.00;99476.75;1653320;85;21581;-71
2022/02/05 07:59:36;;;;;;;98.13;58.97;;;;;;;-2.08;100.00;99531.88;1630207;85;21040;-71
2022/02/05 08:02:04;;;;;;;69.70;58.40;;;;;;;-1.84;100.00;99568.66;1649937;85;21049;-71
2022/02/05 08:04:30;;;;;;;27.93;19.43;;;;;;;-1.76;100.00;99627.77;1610931;87;21054;-70
2022/02/05 08:06:58;;;;;;;31.27;23.17;;;;;;;-1.81;100.00;99686.86;1645952;85;21084;-69
2022/02/05 08:09:33;;;;;;;49.73;39.67;;;;;;;-1.93;100.00;99728.25;1632284;86;21031;-70
2022/02/05 08:14:28;;;;;;;23.57;12.75;;;;;;;-2.03;100.00;99800.03;1551775;90;21086;-70
2022/02/05 08:17:02;;;;;;;29.77;16.67;;;;;;;-1.92;100.00;99809.47;1639836;85;21027;-70
2022/02/05 08:19:26;;;;;;;16.40;9.23;;;;;;;-1.70;100.00;99822.67;1681716;83;21589;-70
2022/02/05 08:21:53;;;;;;;16.00;8.70;;;;;;;-1.46;100.00;99833.03;1675324;83;21618;-70
2022/02/05 08:24:20;;;;;;;15.27;8.30;;;;;;;-1.30;100.00;99855.42;1662523;85;21042;-71
2022/02/05 08:26:48;;;;;;;19.07;10.23;;;;;;;-1.10;100.00;99865.21;1693859;83;21092;-71
2022/02/05 08:29:17;;;;;;;23.70;16.90;;;;;;;-0.84;100.00;99869.64;1702790;82;21026;-70
2022/02/05 08:31:45;;;;;;;15.40;7.43;;;;;;;-0.63;100.00;99891.73;1677527;85;21054;-70
2022/02/05 08:34:12;;;;;;;25.90;14.20;;;;;;;-0.63;100.00;99912.50;1682872;84;20992;-70
2022/02/05 08:36:46;;;;;;;21.33;10.80;;;;;;;-0.72;100.00;99936.17;1695597;83;21109;-71
2022/02/05 08:39:14;;;;;;;14.40;7.85;;;;;;;-0.62;100.00;99942.55;1656394;85;21055;-70
2022/02/05 08:41:41;;;;;;;12.70;6.57;;;;;;;-0.52;100.00;99959.59;1661676;86;21105;-71
2022/02/05 08:44:09;;;;;;;11.87;6.10;;;;;;;-0.54;100.00;99968.63;1650861;85;21103;-70
2022/02/05 08:46:36;;;;;;;13.03;6.63;;;;;;;-0.68;100.00;99974.36;1635252;87;21024;-70
2022/02/05 08:49:04;;;;;;;14.27;6.90;;;;;;;-0.56;100.00;99976.69;1639032;86;21086;-70
2022/02/05 08:51:35;;;;;;;11.53;6.77;;;;;;;-0.44;100.00;99983.84;1639331;87;22124;-69
2022/02/05 08:54:02;;;;;;;15.90;7.60;;;;;;;-0.53;100.00;99992.89;1643886;85;21539;-70
2022/02/05 08:56:30;;;;;;;14.20;7.40;;;;;;;-0.43;100.00;99996.16;1663651;85;22274;-70
2022/02/05 08:58:59;;;;;;;13.43;7.07;;;;;;;-0.33;100.00;99992.91;1653782;86;21183;-71
2022/02/05 09:01:31;;;;;;;19.13;9.67;;;;;;;-0.31;100.00;99999.81;1644879;86;21579;-69
2022/02/05 09:04:06;;;;;;;17.47;9.00;;;;;;;-0.26;100.00;100006.16;1638086;86;21072;-70
2022/02/05 09:06:35;;;;;;;14.97;7.83;;;;;;;-0.03;100.00;99992.16;1650315;86;21572;-70
2022/02/05 09:09:12;;;;;;;14.40;7.23;;;;;;;0.16;100.00;99986.89;1643937;85;21135;-71
2022/02/05 09:16:52;;;;;;;14.73;8.20;;;;;;;0.42;100.00;99990.41;1597633;87;21589;-71
2022/02/05 09:19:19;;;;;;;14.67;7.13;;;;;;;0.42;100.00;99997.55;1608215;88;21111;-70
2022/02/05 09:21:46;;;;;;;14.10;7.30;;;;;;;0.26;100.00;100001.75;1629815;87;21058;-72
2022/02/05 09:24:13;;;;;;;17.20;8.80;;;;;;;0.23;100.00;100002.83;1625440;88;21069;-70
2022/02/05 09:29:19;;;;;;;43.00;29.60;;;;;;;0.23;100.00;99997.52;1576357;89;21606;-70
2022/02/05 09:31:42;;;;;;;16.32;8.85;;;;;;;0.35;100.00;100000.66;1589181;90;21068;-70
2022/02/05 09:34:10;;;;;;;14.53;7.67;;;;;;;0.44;100.00;99989.81;1581448;89;21080;-70
2022/02/05 09:36:39;;;;;;;13.90;7.63;;;;;;;0.32;100.00;99999.98;1599671;87;21055;-69
2022/02/05 09:39:12;;;;;;;12.60;6.80;;;;;;;0.31;100.00;99999.63;1619605;86;21480;-72
2022/02/05 09:41:40;;;;;;;14.60;7.90;;;;;;;0.41;100.00;99994.05;1617422;87;21109;-70
2022/02/05 09:44:07;;;;;;;13.43;7.17;;;;;;;0.35;100.00;99998.45;1615862;88;21078;-71
2022/02/05 09:46:34;;;;;;;13.73;7.53;;;;;;;0.34;100.00;99995.44;1600025;87;21125;-71
2022/02/05 09:49:02;;;;;;;15.73;8.10;;;;;;;0.33;100.00;99990.57;1603844;86;21146;-70
2022/02/05 09:51:34;;;;;;;15.37;7.67;;;;;;;0.35;100.00;99999.32;1608183;88;21037;-72
2022/02/05 09:54:09;;;;;;;15.07;8.23;;;;;;;0.47;100.00;99992.76;1607440;87;21118;-70
2022/02/05 09:59:06;;;;;;;19.30;9.40;;;;;;;0.59;100.00;99983.91;1583451;90;21588;-72
2022/02/05 10:01:37;;;;;;;17.57;8.93;;;;;;;0.47;100.00;99996.27;1579637;90;21100;-71
2022/02/05 10:04:12;;;;;;;18.37;9.00;;;;;;;0.38;100.00;99983.61;1559794;90;21648;-71
2022/02/05 10:06:48;;;;;;;21.73;11.67;;;;;;;0.22;100.00;99990.97;1551327;89;21210;-72
2022/02/05 10:09:16;;;;;;;27.30;12.60;;;;;;;0.31;100.00;99975.69;1557977;90;21146;-70
2022/02/05 10:11:53;;;;;;;24.80;13.63;;;;;;;0.23;100.00;99984.22;1573799;90;21080;-70
2022/02/05 10:14:26;;;;;;;27.63;14.27;;;;;;;0.15;100.00;99985.21;1494280;93;21781;-70
2022/02/05 10:16:59;;;;;;;37.40;21.70;;;;;;;0.01;100.00;99980.00;1562145;90;21024;-71
2022/02/05 10:19:47;;;;;;;30.37;15.88;;;;;;;-0.05;100.00;99990.09;1594452;88;21153;-71
2022/02/05 10:22:14;;;;;;;34.50;20.00;;;;;;;0.03;100.00;99989.55;1603852;88;21055;-71
2022/02/05 10:24:56;;;;;;;32.63;17.00;;;;;;;0.02;100.00;99989.66;1607592;87;21182;-70
2022/02/05 10:27:32;;;;;;;32.40;16.70;;;;;;;-0.08;100.00;99986.79;1555155;91;21089;-71
2022/02/05 10:30:23;;;;;;;32.63;16.83;;;;;;;-0.13;100.00;99988.42;1549408;91;21113;-70
2022/02/05 10:33:20;;;;;;;32.80;16.73;;;;;;;-0.15;100.00;99989.48;1528024;91;21118;-71
2022/02/05 10:36:08;;;;;;;30.47;16.40;;;;;;;-0.15;100.00;99991.66;1560451;90;21238;-71
2022/02/05 10:43:53;;;;;;;31.17;17.43;;;;;;;-0.13;100.00;99985.76;1510565;94;21075;-70
2022/02/05 10:46:20;;;;;;;27.50;13.67;;;;;;;-0.17;100.00;99982.95;1501067;92;21177;-70
2022/02/05 10:48:47;;;;;;;18.83;9.77;;;;;;;-0.19;100.00;99978.22;1448337;96;21138;-71
2022/02/05 10:51:18;;;;;;;18.07;9.60;;;;;;;-0.18;100.00;99983.05;1450200;96;21112;-70
2022/02/05 10:53:52;;;;;;;16.60;8.27;;;;;;;-0.18;100.00;99989.20;1452184;96;21123;-69
2022/02/05 11:07:20;;;;;;;32.70;20.33;;;;;;;0.02;100.00;99979.89;1458544;96;21114;-70
2022/02/05 11:09:52;;;;;;;17.23;9.10;;;;;;;0.10;100.00;99975.37;1455285;97;21096;-70
2022/02/05 11:20:11;;;;;;;13.73;6.57;;;;;;;0.21;100.00;99966.64;1391926;102;21106;-69
2022/02/05 11:23:01;;;;;;;18.57;7.33;;;;;;;-0.02;100.00;99961.97;1383388;101;21198;-69
2022/02/05 11:25:31;;;;;;;19.40;8.27;;;;;;;-0.24;100.00;99960.40;1395997;100;21179;-71
2022/02/05 11:27:58;;;;;;;26.70;9.73;;;;;;;-0.47;100.00;99963.28;1421964;99;21317;-71
2022/02/05 11:30:49;;;;;;;12.97;6.43;;;;;;;-0.63;100.00;99963.44;1428143;98;21117;-70
2022/02/05 11:33:29;;;;;;;10.63;5.63;;;;;;;-0.82;100.00;99952.69;1440498;98;21647;-70
2022/02/05 11:38:44;;;;;;;16.23;7.77;;;;;;;-0.97;100.00;99942.61;1493712;95;21072;-70
2022/02/05 11:41:33;;;;;;;13.70;6.80;;;;;;;-0.75;100.00;99934.55;1494590;95;21602;-71
2022/02/05 11:44:30;;;;;;;27.23;11.47;;;;;;;-0.52;100.00;99931.70;1475209;96;21125;-70
2022/02/05 11:47:15;;;;;;;11.93;6.07;;;;;;;-0.37;100.00;99928.95;1449560;96;21063;-71
2022/02/05 11:50:05;;;;;;;14.37;6.20;;;;;;;-0.20;100.00;99925.52;1465735;96;21687;-68
2022/02/05 11:52:45;;;;;;;11.73;5.57;;;;;;;-0.09;100.00;99923.48;1451337;98;21133;-70
2022/02/05 11:55:33;;;;;;;23.23;14.13;;;;;;;0.03;100.00;99923.58;1481615;95;21637;-70
2022/02/05 11:58:02;;;;;;;14.10;7.57;;;;;;;-0.02;100.00;99922.09;1464677;97;21606;-70
2022/02/05 12:00:36;;;;;;;12.63;6.03;;;;;;;0.03;100.00;99915.11;1463032;97;21146;-69
2022/02/05 12:03:29;;;;;;;18.82;7.42;;;;;;;0.04;100.00;99913.33;1484705;94;21156;-72
2022/02/05 12:06:01;;;;;;;16.90;7.70;;;;;;;0.07;100.00;99913.09;1479148;96;21674;-70
2022/02/05 12:08:26;;;;;;;16.60;7.47;;;;;;;0.14;100.00;99913.91;1469764;96;21103;-70
2022/02/05 12:10:56;;;;;;;15.23;6.40;;;;;;;0.13;100.00;99910.02;1480991;95;21594;-70
2022/02/05 12:13:39;;;;;;;11.97;5.97;;;;;;;-0.03;100.00;99911.08;1476802;93;21166;-70
2022/02/05 12:16:12;;;;;;;11.57;5.97;;;;;;;-0.11;100.00;99912.56;1568112;90;21093;-70
2022/02/05 12:18:55;;;;;;;42.80;15.20;;;;;;;-0.17;100.00;99904.55;1564703;90;21130;-70
2022/02/05 12:21:29;;;;;;;;;;;;;;;-0.20;100.00;99901.60;1552098;90;21102;-71
2022/02/05 12:26:30;;;;;;;55.85;17.05;;;;;;;-0.08;100.00;99891.09;1603987;88;21557;-70
2022/02/05 12:29:03;;;;;;;15.50;6.80;;;;;;;-0.06;100.00;99896.66;1601480;88;21048;-71
2022/02/05 12:31:36;;;;;;;18.87;7.13;;;;;;;-0.12;100.00;99901.58;1587641;89;21047;-70
2022/02/05 12:34:14;;;;;;;14.00;6.80;;;;;;;-0.20;100.00;99895.45;1599773;87;21668;-69
2022/02/05 12:36:50;;;;;;;22.47;9.40;;;;;;;-0.23;100.00;99900.50;1600991;88;21068;-70
2022/02/05 12:39:28;;;;;;;17.30;7.93;;;;;;;-0.29;100.00;99892.94;1605192;89;21020;-70
2022/02/05 12:42:15;;;;;;;28.93;9.63;;;;;;;-0.35;100.00;99903.13;1581264;89;21120;-70
2022/02/05 12:44:43;;;;;;;64.00;20.17;;;;;;;-0.22;100.00;99906.17;1595515;86;21053;-70
2022/02/05 12:47:23;;;;;;;18.93;8.40;;;;;;;0.05;100.00;99897.24;1573974;89;21589;-71
2022/02/05 12:49:54;;;;;;;17.93;9.53;;;;;;;0.29;100.00;99896.49;1496596;93;21125;-71
2022/02/05 12:52:22;;;;;;;16.03;7.87;;;;;;;0.29;100.00;99897.33;1484819;94;21599;-69
2022/02/05 12:54:56;;;;;;;30.63;15.30;;;;;;;0.31;100.00;99903.88;1483578;94;21247;-71
2022/02/05 12:57:21;;;;;;;38.77;16.57;;;;;;;0.27;100.00;99908.56;1446024;96;21165;-71
2022/02/05 12:59:48;;;;;;;23.90;10.43;;;;;;;0.29;100.00;99899.99;1466895;95;21121;-71
2022/02/05 13:02:17;;;;;;;18.00;8.07;;;;;;;0.40;100.00;99906.37;1487686;95;21802;-70
2022/02/05 13:04:52;;;;;;;22.23;9.83;;;;;;;0.53;100.00;99897.86;1479808;95;21147;-69
2022/02/05 13:07:26;;;;;;;25.77;12.07;;;;;;;0.77;100.00;99901.06;1424198;98;22275;-71
2022/02/05 13:09:58;;;;;;;;;;;;;;;0.92;100.00;99905.23;1373255;102;21176;-70
2022/02/05 13:12:34;;;;;;;27.53;10.57;;;;;;;0.91;100.00;99902.23;1357066;103;20123;-70
2022/02/05 13:15:10;;;;;;;23.97;10.30;;;;;;;0.92;100.00;99903.91;1354970;104;21159;-69
2022/02/05 13:26:10;;;;;;;24.00;9.73;;;;;;;0.91;100.00;99917.70;1411145;99;21215;-70
2022/02/05 13:28:41;;;;;;;27.97;10.47;;;;;;;1.06;100.00;99907.77;1408364;98;21149;-72
2022/02/05 13:34:04;;;;;;;12.93;7.20;;;;;;;1.59;100.00;99903.34;1415423;99;21129;-71
2022/02/05 13:41:57;;;;;;;12.27;6.80;;;;;;;1.47;100.00;99905.14;1388517;101;21131;-71
2022/02/05 13:44:24;;;;;;;12.53;6.57;;;;;;;1.36;100.00;99899.75;1359141;103;21130;-70
2022/02/05 13:47:10;;;;;;;12.13;6.80;;;;;;;1.04;100.00;99897.68;1377528;101;21164;-70
2022/02/05 13:49:38;;;;;;;13.03;7.40;;;;;;;0.92;100.00;99891.47;1366378;103;21223;-70
2022/02/05 13:52:16;;;;;;;12.37;7.47;;;;;;;0.80;100.00;99900.35;1376664;102;21152;-70
2022/02/05 13:54:44;;;;;;;12.17;7.07;;;;;;;0.56;100.00;99897.16;1357094;104;21123;-69
2022/02/05 13:57:15;;;;;;;14.43;7.73;;;;;;;0.31;100.00;99902.06;1350246;105;21169;-73
2022/02/05 13:59:42;;;;;;;12.23;7.17;;;;;;;0.14;100.00;99894.42;1348950;105;21169;-70
2022/02/05 14:02:14;;;;;;;13.73;7.33;;;;;;;-0.04;100.00;99896.08;1355882;104;21297;-69
2022/02/05 14:04:41;;;;;;;11.47;6.90;;;;;;;-0.14;100.00;99889.72;1368004;101;21124;-70
2022/02/05 14:07:08;;;;;;;18.93;10.00;;;;;;;-0.36;100.00;99882.36;1385603;101;21221;-69
2022/02/05 14:09:35;;;;;;;12.47;7.17;;;;;;;-0.49;100.00;99886.83;1355213;105;21623;-70
2022/02/05 14:12:17;;;;;;;13.50;7.33;;;;;;;-0.63;100.00;99880.63;1360834;103;21174;-69
2022/02/05 14:14:44;;;;;;;13.77;7.50;;;;;;;-0.84;100.00;99875.44;1375215;102;21617;-70
2022/02/05 14:17:18;;;;;;;13.07;7.23;;;;;;;-0.96;100.00;99865.15;1418377;98;21673;-71
2022/02/05 14:19:48;;;;;;;14.93;7.83;;;;;;;-1.06;100.00;99866.25;1450150;98;21153;-71
2022/02/05 14:22:26;;;;;;;17.37;8.50;;;;;;;-1.20;100.00;99861.00;1428654;99;21118;-69
2022/02/05 14:25:22;;;;;;;17.53;8.47;;;;;;;-1.33;100.00;99859.59;1447465;98;21182;-69
2022/02/05 14:28:13;;;;;;;18.53;8.90;;;;;;;-1.41;100.00;99857.45;1410675;101;21672;-70
2022/02/05 14:30:38;;;;;;;19.27;9.57;;;;;;;-1.48;100.00;99848.19;1420414;100;21079;-69
2022/02/05 14:33:08;;;;;;;18.80;9.20;;;;;;;-1.57;100.00;99852.77;1411497;101;21221;-70
2022/02/05 14:40:54;;;;;;;21.17;9.90;;;;;;;-1.89;100.00;99848.16;1435697;99;21127;-70
2022/02/05 14:43:23;;;;;;;23.53;12.27;;;;;;;-1.99;100.00;99843.92;1451716;97;21117;-70
2022/02/05 14:45:51;;;;;;;23.10;10.70;;;;;;;-2.08;100.00;99838.73;1581937;84;21087;-69
2022/02/05 14:48:20;;;;;;;24.20;11.67;;;;;;;-2.14;100.00;99839.13;1692175;84;21153;-70
2022/02/05 14:50:49;;;;;;;23.90;11.87;;;;;;;-2.22;100.00;99838.73;1693587;84;21010;-69
2022/02/05 14:53:16;;;;;;;26.77;12.33;;;;;;;-2.31;100.00;99842.31;1688590;84;21216;-71
2022/02/05 14:55:43;;;;;;;23.27;10.60;;;;;;;-2.36;100.00;99836.92;1685899;85;21011;-70